createdAt,value
2022-08-10T00:01:11.450Z,2.70
2022-08-10T00:03:38.139Z,2.50
2022-08-10T00:06:04.823Z,2.40
2022-08-10T00:08:31.433Z,2.60
2022-08-10T00:10:58.282Z,2.45
2022-08-10T00:13:26.311Z,2.60
2022-08-10T00:15:55.311Z,2.53
2022-08-10T00:18:35.539Z,2.60
2022-08-10T00:21:06.524Z,2.70
2022-08-10T00:23:33.925Z,2.70
2022-08-10T00:26:01.181Z,2.78
2022-08-10T00:28:28.064Z,2.90
2022-08-10T00:30:54.662Z,2.70
2022-08-10T00:33:21.521Z,2.72
2022-08-10T00:35:48.827Z,2.78
2022-08-10T00:38:15.487Z,2.47
2022-08-10T00:40:42.375Z,2.92
2022-08-10T00:43:09.076Z,2.65
2022-08-10T00:45:36.723Z,2.88
2022-08-10T00:48:03.835Z,2.70
2022-08-10T00:50:30.760Z,2.80
2022-08-10T00:52:57.677Z,2.88
2022-08-10T00:55:24.594Z,2.70
2022-08-10T00:57:55.148Z,2.83
2022-08-10T01:00:23.668Z,2.55
2022-08-10T01:02:50.363Z,2.58
2022-08-10T01:05:17.359Z,2.90
2022-08-10T01:07:53.456Z,2.80
2022-08-10T01:10:41.695Z,3.05
2022-08-10T01:13:24.509Z,3.15
2022-08-10T01:16:21.645Z,2.58
2022-08-10T01:19:08.109Z,3.40
2022-08-10T01:21:56.788Z,2.92
2022-08-10T01:24:39.214Z,3.42
2022-08-10T01:27:32.239Z,2.80
2022-08-10T01:30:04.400Z,3.05
2022-08-10T01:32:37.250Z,2.50
2022-08-10T01:35:13.287Z,3.10
2022-08-10T01:37:51.751Z,2.80
2022-08-10T01:40:25.122Z,3.15
2022-08-10T01:42:54.943Z,3.40
2022-08-10T01:45:28.034Z,2.83
2022-08-10T01:48:16.767Z,3.08
2022-08-10T01:50:59.736Z,3.08
2022-08-10T01:53:40.205Z,3.50
2022-08-10T01:56:10.960Z,3.17
2022-08-10T01:58:39.579Z,3.00
2022-08-10T02:01:09.602Z,3.20
2022-08-10T02:04:05.400Z,2.88
2022-08-10T02:06:28.002Z,3.28
2022-08-10T02:09:05.769Z,2.50
2022-08-10T02:11:55.627Z,3.28
2022-08-10T02:14:21.665Z,2.88
2022-08-10T02:16:50.790Z,4.35
2022-08-10T02:19:23.099Z,3.65
2022-08-10T02:22:36.696Z,3.00
2022-08-10T02:24:42.826Z,3.15
2022-08-10T02:27:12.284Z,3.33
2022-08-10T02:29:42.313Z,2.60
2022-08-10T02:32:11.927Z,2.90
2022-08-10T02:34:40.090Z,2.85
2022-08-10T02:37:10.758Z,2.92
2022-08-10T02:39:37.919Z,3.17
2022-08-10T02:45:12.377Z,3.20
2022-08-10T02:45:20.000Z,2.78
2022-08-10T02:48:00.416Z,2.80
2022-08-10T02:50:35.524Z,2.15
2022-08-10T02:53:05.431Z,2.28
2022-08-10T02:55:51.066Z,2.67
2022-08-10T02:58:29.373Z,3.03
2022-08-10T03:00:57.343Z,2.55
2022-08-10T03:03:28.300Z,2.80
2022-08-10T03:06:00.346Z,2.20
2022-08-10T03:08:31.483Z,2.53
2022-08-10T03:11:02.870Z,2.72
2022-08-10T03:13:31.017Z,2.55
2022-08-10T03:15:58.755Z,3.00
2022-08-10T03:18:26.240Z,2.60
2022-08-10T03:20:55.767Z,2.40
2022-08-10T03:23:24.534Z,2.72
2022-08-10T03:25:55.468Z,2.50
2022-08-10T03:28:24.738Z,2.60
2022-08-10T03:30:52.127Z,2.47
2022-08-10T03:33:21.399Z,2.88
2022-08-10T03:36:42.184Z,2.58
2022-08-10T03:38:35.434Z,2.80
2022-08-10T03:41:04.509Z,2.60
2022-08-10T03:43:31.515Z,2.60
2022-08-10T03:46:01.210Z,2.40
2022-08-10T03:48:45.247Z,2.50
2022-08-10T03:51:18.937Z,2.67
2022-08-10T03:54:03.438Z,2.97
2022-08-10T03:56:34.777Z,2.30
2022-08-10T03:59:04.071Z,2.60
2022-08-10T04:02:43.693Z,2.90
2022-08-10T04:04:23.762Z,2.80
2022-08-10T04:06:57.497Z,2.97
2022-08-10T04:09:42.801Z,2.72
2022-08-10T04:12:15.645Z,2.45
2022-08-10T04:14:50.950Z,2.63
2022-08-10T04:18:02.745Z,2.78
2022-08-10T04:20:13.236Z,2.85
2022-08-10T04:22:41.894Z,2.92
2022-08-10T04:25:10.523Z,2.72
2022-08-10T04:27:37.423Z,2.92
2022-08-10T04:30:04.520Z,2.90
2022-08-10T04:32:32.254Z,3.33
2022-08-10T04:35:00.117Z,2.80
2022-08-10T04:37:27.654Z,3.13
2022-08-10T04:39:55.287Z,3.05
2022-08-10T04:42:21.994Z,3.08
2022-08-10T04:44:50.618Z,3.22
2022-08-10T04:47:17.230Z,2.88
2022-08-10T04:50:04.804Z,3.25
2022-08-10T04:52:31.661Z,3.03
2022-08-10T04:54:58.565Z,3.22
2022-08-10T04:57:25.419Z,3.50
2022-08-10T04:59:51.983Z,3.38
2022-08-10T05:02:29.399Z,3.40
2022-08-10T05:04:58.811Z,3.20
2022-08-10T05:07:25.827Z,3.17
2022-08-10T05:10:01.047Z,3.30
2022-08-10T05:12:39.041Z,3.40
2022-08-10T05:15:07.437Z,3.42
2022-08-10T05:17:35.866Z,2.97
2022-08-10T05:20:06.838Z,3.10
2022-08-10T05:22:41.243Z,3.00
2022-08-10T05:25:10.761Z,3.05
2022-08-10T05:27:38.329Z,2.90
2022-08-10T05:30:07.485Z,3.42
2022-08-10T05:32:58.586Z,3.83
2022-08-10T05:35:22.213Z,3.10
2022-08-10T05:38:09.626Z,3.80
2022-08-10T05:40:39.294Z,4.20
2022-08-10T05:43:06.915Z,4.05
2022-08-10T05:45:33.993Z,3.95
2022-08-10T05:48:54.561Z,4.78
2022-08-10T05:51:10.256Z,4.45
2022-08-10T05:54:03.023Z,4.68
2022-08-10T05:56:26.052Z,4.47
2022-08-10T05:58:52.931Z,4.75
2022-08-10T06:01:23.505Z,4.47
2022-08-10T06:03:54.111Z,4.38
2022-08-10T06:06:24.908Z,4.93
2022-08-10T06:08:53.583Z,5.30
2022-08-10T06:12:26.869Z,4.57
2022-08-10T06:14:28.332Z,4.35
2022-08-10T06:16:57.398Z,4.38
2022-08-10T06:19:25.511Z,4.57
2022-08-10T06:22:00.376Z,4.47
2022-08-10T06:24:31.181Z,5.10
2022-08-10T06:26:59.432Z,4.80
2022-08-10T06:29:29.502Z,4.95
2022-08-10T06:31:57.389Z,4.97
2022-08-10T06:34:30.509Z,4.13
2022-08-10T06:37:01.232Z,4.00
2022-08-10T06:39:36.411Z,4.28
2022-08-10T06:42:17.887Z,3.78
2022-08-10T06:45:07.682Z,2.78
2022-08-10T06:47:43.977Z,2.30
2022-08-10T06:50:34.410Z,2.72
2022-08-10T06:53:12.737Z,2.30
2022-08-10T06:55:55.478Z,2.60
2022-08-10T06:58:26.645Z,2.00
2022-08-10T07:00:55.668Z,2.38
2022-08-10T07:03:31.159Z,2.35
2022-08-10T07:05:59.865Z,2.20
2022-08-10T07:08:31.562Z,2.17
2022-08-10T07:10:59.343Z,2.25
2022-08-10T07:14:14.425Z,2.38
2022-08-10T07:16:16.466Z,2.50
2022-08-10T07:18:46.304Z,2.38
2022-08-10T07:21:15.010Z,1.80
2022-08-10T07:23:58.059Z,2.35
2022-08-10T07:26:30.403Z,2.10
2022-08-10T07:28:59.324Z,2.38
2022-08-10T07:31:54.408Z,2.20
2022-08-10T07:34:21.659Z,2.30
2022-08-10T07:37:01.202Z,1.73
2022-08-10T07:40:02.645Z,2.20
2022-08-10T07:42:20.709Z,2.22
2022-08-10T07:44:48.575Z,2.13
2022-08-10T07:47:19.913Z,2.25
2022-08-10T07:50:10.864Z,2.20
2022-08-10T07:52:39.932Z,1.90
2022-08-10T07:55:08.131Z,2.00
2022-08-10T07:57:40.246Z,2.13
2022-08-10T08:00:10.320Z,2.08
2022-08-10T08:02:48.328Z,1.90
2022-08-10T08:05:54.855Z,2.03
2022-08-10T08:08:05.390Z,2.20
2022-08-10T08:10:33.333Z,2.13
2022-08-10T08:13:01.611Z,2.50
2022-08-10T08:16:20.670Z,2.30
2022-08-10T08:18:20.524Z,2.33
2022-08-10T08:20:52.961Z,2.50
2022-08-10T08:24:04.730Z,2.80
2022-08-10T08:26:10.564Z,2.80
2022-08-10T08:28:38.493Z,2.60
2022-08-10T08:31:05.485Z,2.08
2022-08-10T08:33:41.885Z,2.20
2022-08-10T08:36:09.866Z,2.22
2022-08-10T08:38:37.899Z,2.15
2022-08-10T08:41:27.329Z,2.40
2022-08-10T08:44:03.415Z,2.50
2022-08-10T08:50:08.951Z,2.38
2022-08-10T08:52:47.864Z,2.37
2022-08-10T08:56:03.031Z,2.40
2022-08-10T08:58:27.812Z,2.30
2022-08-10T09:00:55.381Z,2.55
2022-08-10T09:03:27.563Z,2.53
2022-08-10T09:06:30.052Z,2.58
2022-08-10T09:09:20.314Z,2.50
2022-08-10T09:12:11.865Z,2.25
2022-08-10T09:15:00.663Z,2.42
2022-08-10T09:17:42.279Z,2.25
2022-08-10T09:20:19.084Z,2.15
2022-08-10T09:23:07.774Z,2.50
2022-08-10T09:25:45.151Z,2.15
2022-08-10T09:28:22.536Z,2.25
2022-08-10T09:31:23.036Z,2.10
2022-08-10T09:36:26.997Z,2.10
2022-08-10T09:37:00.384Z,2.25
2022-08-10T09:40:12.315Z,2.30
2022-08-10T09:46:06.779Z,2.10
2022-08-10T09:48:51.836Z,2.53
2022-08-10T09:51:49.031Z,2.28
2022-08-10T09:54:48.787Z,2.25
2022-08-10T09:57:50.638Z,2.40
2022-08-10T10:00:27.162Z,2.60
2022-08-10T10:03:08.855Z,2.10
2022-08-10T10:06:05.940Z,2.45
2022-08-10T10:08:48.690Z,2.55
2022-08-10T10:11:40.070Z,2.55
2022-08-10T10:14:57.020Z,2.08
2022-08-10T10:17:33.971Z,2.30
2022-08-10T10:20:14.912Z,1.80
2022-08-10T10:22:50.497Z,2.20
2022-08-10T10:25:50.139Z,2.03
2022-08-10T10:29:06.974Z,2.17
2022-08-10T10:31:30.333Z,2.20
2022-08-10T10:34:12.524Z,2.53
2022-08-10T10:36:42.420Z,2.33
2022-08-10T10:39:13.543Z,1.92
2022-08-10T10:42:03.887Z,2.33
2022-08-10T10:44:42.615Z,2.15
2022-08-10T10:47:38.019Z,2.20
2022-08-10T10:50:11.280Z,2.22
2022-08-10T10:52:58.442Z,2.53
2022-08-10T10:55:33.712Z,2.38
2022-08-10T10:58:28.603Z,2.50
2022-08-10T11:01:11.195Z,2.40
2022-08-10T11:04:09.047Z,2.78
2022-08-10T11:07:03.988Z,2.63
2022-08-10T11:10:07.001Z,1.98
2022-08-10T11:12:37.128Z,2.05
2022-08-10T11:15:16.054Z,2.40
2022-08-10T11:17:56.544Z,2.17
2022-08-10T11:20:37.420Z,2.30
2022-08-10T11:23:10.400Z,2.65
2022-08-10T11:25:41.439Z,2.55
2022-08-10T11:28:18.088Z,2.42
2022-08-10T11:31:10.948Z,2.00
2022-08-10T11:34:03.864Z,2.55
2022-08-10T11:36:29.120Z,2.20
2022-08-10T11:39:15.319Z,2.42
2022-08-10T11:44:53.619Z,2.30
2022-08-10T11:47:27.906Z,2.00
2022-08-10T11:50:15.950Z,2.50
2022-08-10T11:53:16.089Z,2.20
2022-08-10T11:55:49.342Z,2.20
2022-08-10T11:58:32.879Z,3.20
2022-08-10T12:01:02.522Z,2.60
2022-08-10T12:03:34.912Z,2.15
2022-08-10T12:06:04.624Z,2.20
2022-08-10T12:10:02.675Z,2.70
2022-08-10T12:11:25.385Z,3.17
2022-08-10T12:14:20.800Z,2.80
2022-08-10T12:16:52.746Z,1.95
2022-08-10T12:19:31.380Z,1.80
2022-08-10T12:22:24.267Z,2.25
2022-08-10T12:25:00.611Z,2.50
2022-08-10T12:27:50.752Z,2.17
2022-08-10T12:30:20.101Z,2.08
2022-08-10T12:33:09.372Z,2.33
2022-08-10T12:35:56.089Z,2.22
2022-08-10T12:38:39.282Z,1.77
2022-08-10T12:41:16.753Z,2.30
2022-08-10T12:44:07.287Z,3.00
2022-08-10T12:47:14.041Z,2.70
2022-08-10T12:50:23.793Z,2.50
2022-08-10T12:52:48.451Z,1.73
2022-08-10T12:55:17.877Z,2.05
2022-08-10T12:57:51.310Z,2.05
2022-08-10T13:00:19.920Z,1.77
2022-08-10T13:02:49.240Z,1.95
2022-08-10T13:05:17.203Z,2.47
2022-08-10T13:08:04.062Z,1.98
2022-08-10T13:10:41.532Z,1.73
2022-08-10T13:13:09.030Z,1.87
2022-08-10T13:15:48.747Z,2.17
2022-08-10T13:18:22.927Z,1.88
2022-08-10T13:20:52.327Z,2.13
2022-08-10T13:23:28.174Z,1.85
2022-08-10T13:25:59.425Z,2.50
2022-08-10T13:28:39.663Z,1.90
2022-08-10T13:31:16.618Z,2.03
2022-08-10T13:34:41.299Z,1.60
2022-08-10T13:36:42.113Z,2.13
2022-08-10T13:39:11.043Z,1.98
2022-08-10T13:41:41.045Z,1.77
2022-08-10T13:44:11.460Z,1.75
2022-08-10T13:46:42.089Z,2.40
2022-08-10T13:49:11.242Z,2.10
2022-08-10T13:51:56.636Z,1.95
2022-08-10T13:54:39.151Z,1.98
2022-08-10T13:57:06.849Z,1.70
2022-08-10T14:00:34.325Z,1.52
2022-08-10T14:02:27.160Z,1.70
2022-08-10T14:04:56.242Z,2.03
2022-08-10T14:07:24.220Z,1.83
2022-08-10T14:09:53.147Z,2.10
2022-08-10T14:12:32.281Z,2.38
2022-08-10T14:15:03.119Z,2.20
2022-08-10T14:17:30.601Z,2.10
2022-08-10T14:19:59.205Z,2.30
2022-08-10T14:22:34.256Z,1.70
2022-08-10T14:25:11.769Z,2.03
2022-08-10T14:28:02.423Z,2.40
2022-08-10T14:30:31.343Z,2.20
2022-08-10T14:33:04.012Z,1.83
2022-08-10T14:36:20.786Z,2.03
2022-08-10T14:38:23.333Z,1.80
2022-08-10T14:40:53.667Z,1.70
2022-08-10T14:43:28.405Z,2.60
2022-08-10T14:46:01.345Z,1.52
2022-08-10T14:48:33.914Z,1.63
2022-08-10T14:51:03.069Z,1.75
2022-08-10T14:53:34.668Z,1.63
2022-08-10T14:56:03.395Z,2.28
2022-08-10T14:58:38.689Z,1.70
2022-08-10T15:01:07.785Z,1.70
2022-08-10T15:03:58.826Z,2.05
2022-08-10T15:06:30.992Z,1.88
2022-08-10T15:09:19.746Z,1.77
2022-08-10T15:12:15.711Z,1.95
2022-08-10T15:14:45.624Z,1.80
2022-08-10T15:17:17.225Z,1.60
2022-08-10T15:20:02.142Z,1.95
2022-08-10T15:22:46.597Z,1.55
2022-08-10T15:25:17.944Z,1.60
2022-08-10T15:27:56.235Z,1.88
2022-08-10T15:30:30.860Z,2.00
2022-08-10T15:33:21.451Z,1.73
2022-08-10T15:36:21.720Z,1.45
2022-08-10T15:38:56.648Z,1.80
2022-08-10T15:41:57.773Z,1.52
2022-08-10T15:44:33.839Z,1.50
2022-08-10T15:47:05.940Z,1.35
2022-08-10T15:49:45.085Z,1.92
2022-08-10T15:52:39.878Z,1.50
2022-08-10T15:55:44.036Z,1.60
2022-08-10T15:58:06.641Z,1.80
2022-08-10T16:00:37.934Z,1.83
2022-08-10T16:03:15.659Z,1.77
2022-08-10T16:06:00.991Z,1.83
2022-08-10T16:08:56.337Z,1.67
2022-08-10T16:11:42.095Z,1.60
2022-08-10T16:14:14.650Z,1.90
2022-08-10T16:16:47.659Z,1.70
2022-08-10T16:19:23.915Z,1.70
2022-08-10T16:22:35.795Z,1.63
2022-08-10T16:24:58.490Z,1.70
2022-08-10T16:27:28.227Z,1.95
2022-08-10T16:30:00.830Z,1.73
2022-08-10T16:32:30.372Z,1.77
2022-08-10T16:34:58.161Z,1.58
2022-08-10T16:37:58.275Z,1.50
2022-08-10T16:40:23.620Z,1.70
2022-08-10T16:42:51.439Z,2.03
2022-08-10T16:45:24.137Z,1.75
2022-08-10T16:47:53.803Z,1.58
2022-08-10T16:50:26.750Z,1.85
2022-08-10T16:52:55.686Z,1.55
2022-08-10T16:55:48.122Z,1.85
2022-08-10T16:58:14.279Z,1.63
2022-08-10T17:00:44.404Z,1.50
2022-08-10T17:04:05.306Z,2.13
2022-08-10T17:06:11.108Z,1.85
2022-08-10T17:08:48.225Z,1.60
2022-08-10T17:11:17.372Z,1.38
2022-08-10T17:13:44.191Z,1.67
2022-08-10T17:16:17.145Z,1.60
2022-08-10T17:18:46.956Z,1.63
2022-08-10T17:21:16.239Z,1.77
2022-08-10T17:23:46.996Z,2.00
2022-08-10T17:26:18.743Z,1.65
2022-08-10T17:28:56.430Z,2.05
2022-08-10T17:31:54.188Z,1.70
2022-08-10T17:34:21.215Z,1.90
2022-08-10T17:36:53.619Z,2.30
2022-08-10T17:39:23.766Z,1.85
2022-08-10T17:41:53.052Z,1.83
2022-08-10T17:44:21.280Z,1.80
2022-08-10T17:46:48.037Z,1.90
2022-08-10T17:49:18.040Z,2.22
2022-08-10T17:51:52.163Z,2.40
2022-08-10T17:54:27.305Z,1.77
2022-08-10T17:56:59.150Z,1.88
2022-08-10T17:59:28.669Z,1.80
2022-08-10T18:02:02.604Z,2.30
2022-08-10T18:04:41.421Z,1.95
2022-08-10T18:07:10.998Z,2.20
2022-08-10T18:09:42.139Z,2.50
2022-08-10T18:12:18.500Z,2.20
2022-08-10T18:14:48.291Z,2.17
2022-08-10T18:17:18.859Z,2.28
2022-08-10T18:19:52.620Z,1.90
2022-08-10T18:22:20.395Z,2.05
2022-08-10T18:24:49.082Z,2.33
2022-08-10T18:27:17.044Z,1.90
2022-08-10T18:29:47.983Z,1.90
2022-08-10T18:32:15.878Z,2.05
2022-08-10T18:34:43.979Z,2.22
2022-08-10T18:37:20.178Z,2.47
2022-08-10T18:39:49.065Z,2.13
2022-08-10T18:42:21.973Z,1.98
2022-08-10T18:44:58.741Z,1.90
2022-08-10T18:47:33.711Z,2.35
2022-08-10T18:50:09.144Z,2.50
2022-08-10T18:52:38.175Z,2.17
2022-08-10T18:55:26.877Z,2.33
2022-08-10T18:58:12.880Z,2.53
2022-08-10T19:01:08.642Z,1.97
2022-08-10T19:03:57.593Z,1.80
2022-08-10T19:06:39.365Z,2.08
2022-08-10T19:09:47.586Z,2.13
2022-08-10T19:12:31.026Z,2.20
2022-08-10T19:15:23.270Z,1.98
2022-08-10T19:18:07.031Z,1.88
2022-08-10T19:20:41.162Z,1.98
2022-08-10T19:23:44.289Z,2.35
2022-08-10T19:26:45.052Z,1.90
2022-08-10T19:30:09.560Z,2.08
2022-08-10T19:32:49.580Z,1.85
2022-08-10T19:35:33.354Z,2.15
2022-08-10T19:38:33.201Z,2.10
2022-08-10T19:41:14.983Z,2.55
2022-08-10T19:44:02.577Z,2.22
2022-08-10T19:46:49.114Z,1.85
2022-08-10T19:49:15.660Z,2.28
2022-08-10T19:51:49.295Z,2.17
2022-08-10T19:54:35.859Z,1.95
2022-08-10T20:03:02.814Z,2.15
2022-08-10T20:06:19.325Z,2.50
2022-08-10T20:08:48.144Z,2.15
2022-08-10T20:11:45.173Z,2.20
2022-08-10T20:14:22.304Z,2.22
2022-08-10T20:16:51.648Z,2.35
2022-08-10T20:19:52.519Z,2.20
2022-08-10T20:22:29.249Z,2.20
2022-08-10T20:25:14.241Z,2.30
2022-08-10T20:28:01.712Z,2.17
2022-08-10T20:30:33.242Z,2.53
2022-08-10T20:33:09.621Z,2.25
2022-08-10T20:35:38.255Z,2.47
2022-08-10T20:38:16.577Z,2.80
2022-08-10T20:40:50.166Z,2.50
2022-08-10T20:43:34.769Z,2.08
2022-08-10T20:46:32.014Z,2.15
2022-08-10T20:49:11.554Z,2.65
2022-08-10T20:51:59.225Z,2.60
2022-08-10T20:54:34.906Z,2.78
2022-08-10T20:57:54.856Z,2.70
2022-08-10T21:00:11.111Z,2.67
2022-08-10T21:02:50.605Z,2.90
2022-08-10T21:05:52.725Z,2.50
2022-08-10T21:08:45.134Z,2.63
2022-08-10T21:11:23.772Z,2.85
2022-08-10T21:14:02.334Z,2.72
2022-08-10T21:16:49.489Z,2.78
2022-08-10T21:19:31.432Z,2.45
2022-08-10T21:22:16.714Z,2.97
2022-08-10T21:24:48.662Z,2.70
2022-08-10T21:27:34.265Z,2.92
2022-08-10T21:30:17.830Z,2.80
2022-08-10T21:33:07.501Z,2.88
2022-08-10T21:35:43.329Z,3.20
2022-08-10T21:38:26.565Z,2.92
2022-08-10T21:41:17.120Z,3.22
2022-08-10T21:44:20.241Z,2.92
2022-08-10T21:47:31.008Z,2.85
2022-08-10T21:50:27.296Z,3.00
2022-08-10T21:53:21.864Z,3.50
2022-08-10T21:56:36.455Z,2.90
2022-08-10T21:59:36.161Z,3.10
2022-08-10T22:02:28.376Z,2.85
2022-08-10T22:05:15.857Z,3.38
2022-08-10T22:08:05.317Z,3.33
2022-08-10T22:10:47.394Z,3.10
2022-08-10T22:13:33.948Z,3.20
2022-08-10T22:19:04.516Z,3.00
2022-08-10T22:22:19.759Z,2.92
2022-08-10T22:25:39.809Z,2.65
2022-08-10T22:28:21.816Z,2.97
2022-08-10T22:34:45.998Z,3.20
2022-08-10T22:37:52.718Z,2.95
2022-08-10T22:40:38.914Z,3.57
2022-08-10T22:43:36.421Z,3.15
2022-08-10T22:46:26.241Z,3.40
2022-08-10T22:49:00.278Z,3.38
2022-08-10T22:51:43.060Z,3.58
2022-08-10T22:54:31.876Z,3.00
2022-08-10T22:57:16.221Z,3.53
2022-08-10T22:59:42.896Z,3.50
2022-08-10T23:02:14.163Z,3.05
2022-08-10T23:04:50.763Z,3.20
2022-08-10T23:07:17.335Z,3.20
2022-08-10T23:09:47.272Z,3.08
2022-08-10T23:12:20.587Z,3.20
2022-08-10T23:15:00.044Z,3.97
2022-08-10T23:18:00.668Z,3.30
2022-08-10T23:20:30.542Z,3.72
2022-08-10T23:23:07.370Z,3.20
2022-08-10T23:25:56.186Z,2.95
2022-08-10T23:28:39.131Z,3.50
2022-08-10T23:31:14.629Z,3.38
2022-08-10T23:33:42.881Z,3.28
2022-08-10T23:36:34.398Z,3.10
2022-08-10T23:39:25.470Z,3.50
2022-08-10T23:41:56.705Z,3.58
2022-08-10T23:44:24.766Z,3.00
2022-08-10T23:46:52.229Z,3.65
2022-08-10T23:49:20.975Z,3.47
2022-08-10T23:51:55.365Z,3.15
2022-08-10T23:54:25.083Z,3.22
2022-08-10T23:57:01.096Z,3.08
2022-08-10T23:59:31.831Z,3.38
